sensor_id;sensor_type;location;lat;lon;timestamp;P1;durP1;ratioP1;P2;durP2;ratioP2
17520;SDS011;8878;-33.370;-70.552;2023-07-16T00:02:12;20.07;;;10.40;;
17520;SDS011;8878;-33.370;-70.552;2023-07-16T00:04:42;14.93;;;9.47;;
17520;SDS011;8878;-33.370;-70.552;2023-07-16T00:07:11;17.57;;;8.37;;
17520;SDS011;8878;-33.370;-70.552;2023-07-16T00:09:43;17.93;;;9.73;;
17520;SDS011;8878;-33.370;-70.552;2023-07-16T00:12:13;16.77;;;9.77;;
17520;SDS011;8878;-33.370;-70.552;2023-07-16T00:14:42;15.67;;;9.43;;
17520;SDS011;8878;-33.370;-70.552;2023-07-16T00:17:12;19.67;;;10.53;;
17520;SDS011;8878;-33.370;-70.552;2023-07-16T00:19:42;19.57;;;9.30;;
17520;SDS011;8878;-33.370;-70.552;2023-07-16T00:22:11;19.00;;;8.70;;
17520;SDS011;8878;-33.370;-70.552;2023-07-16T00:24:42;17.67;;;8.93;;
17520;SDS011;8878;-33.370;-70.552;2023-07-16T00:27:13;20.20;;;9.03;;
17520;SDS011;8878;-33.370;-70.552;2023-07-16T00:29:43;22.43;;;9.70;;
17520;SDS011;8878;-33.370;-70.552;2023-07-16T00:32:13;19.07;;;9.13;;
17520;SDS011;8878;-33.370;-70.552;2023-07-16T00:34:43;15.73;;;8.83;;
17520;SDS011;8878;-33.370;-70.552;2023-07-16T00:37:14;18.20;;;8.23;;
17520;SDS011;8878;-33.370;-70.552;2023-07-16T00:39:44;16.60;;;9.33;;
17520;SDS011;8878;-33.370;-70.552;2023-07-16T00:42:13;9.17;;;6.23;;
17520;SDS011;8878;-33.370;-70.552;2023-07-16T00:44:43;19.13;;;9.87;;
17520;SDS011;8878;-33.370;-70.552;2023-07-16T00:47:13;16.47;;;7.80;;
17520;SDS011;8878;-33.370;-70.552;2023-07-16T00:49:42;20.17;;;8.80;;
17520;SDS011;8878;-33.370;-70.552;2023-07-16T00:52:14;10.47;;;6.33;;
17520;SDS011;8878;-33.370;-70.552;2023-07-16T00:54:49;17.30;;;7.87;;
17520;SDS011;8878;-33.370;-70.552;2023-07-16T00:57:18;18.07;;;7.40;;
17520;SDS011;8878;-33.370;-70.552;2023-07-16T00:59:48;16.90;;;8.17;;
17520;SDS011;8878;-33.370;-70.552;2023-07-16T01:02:17;12.27;;;6.90;;
17520;SDS011;8878;-33.370;-70.552;2023-07-16T01:04:48;18.07;;;7.33;;
17520;SDS011;8878;-33.370;-70.552;2023-07-16T01:07:19;17.57;;;8.37;;
17520;SDS011;8878;-33.370;-70.552;2023-07-16T01:09:52;11.67;;;6.53;;
17520;SDS011;8878;-33.370;-70.552;2023-07-16T01:12:23;9.70;;;6.63;;
17520;SDS011;8878;-33.370;-70.552;2023-07-16T01:14:55;13.27;;;6.80;;
17520;SDS011;8878;-33.370;-70.552;2023-07-16T01:17:26;15.97;;;7.87;;
17520;SDS011;8878;-33.370;-70.552;2023-07-16T01:19:56;14.83;;;6.70;;
17520;SDS011;8878;-33.370;-70.552;2023-07-16T01:22:35;16.80;;;8.67;;
17520;SDS011;8878;-33.370;-70.552;2023-07-16T01:28:26;11.13;;;5.73;;
17520;SDS011;8878;-33.370;-70.552;2023-07-16T01:31:08;13.47;;;5.20;;
17520;SDS011;8878;-33.370;-70.552;2023-07-16T01:33:40;11.43;;;5.40;;
17520;SDS011;8878;-33.370;-70.552;2023-07-16T01:36:10;15.70;;;6.23;;
17520;SDS011;8878;-33.370;-70.552;2023-07-16T01:38:40;15.00;;;4.40;;
17520;SDS011;8878;-33.370;-70.552;2023-07-16T01:41:10;9.87;;;5.93;;
17520;SDS011;8878;-33.370;-70.552;2023-07-16T01:43:40;9.13;;;4.53;;
17520;SDS011;8878;-33.370;-70.552;2023-07-16T01:46:11;11.93;;;6.73;;
17520;SDS011;8878;-33.370;-70.552;2023-07-16T01:48:41;13.40;;;6.23;;
17520;SDS011;8878;-33.370;-70.552;2023-07-16T01:51:11;8.83;;;5.53;;
17520;SDS011;8878;-33.370;-70.552;2023-07-16T01:53:41;10.33;;;5.33;;
17520;SDS011;8878;-33.370;-70.552;2023-07-16T01:56:12;6.27;;;4.80;;
17520;SDS011;8878;-33.370;-70.552;2023-07-16T01:58:41;10.73;;;5.53;;
17520;SDS011;8878;-33.370;-70.552;2023-07-16T02:01:13;10.60;;;3.93;;
17520;SDS011;8878;-33.370;-70.552;2023-07-16T02:03:42;9.87;;;3.90;;
17520;SDS011;8878;-33.370;-70.552;2023-07-16T02:06:12;8.50;;;4.13;;
17520;SDS011;8878;-33.370;-70.552;2023-07-16T02:08:41;8.97;;;4.50;;
17520;SDS011;8878;-33.370;-70.552;2023-07-16T02:11:11;7.80;;;4.70;;
17520;SDS011;8878;-33.370;-70.552;2023-07-16T02:13:41;8.77;;;4.57;;
17520;SDS011;8878;-33.370;-70.552;2023-07-16T02:16:12;8.33;;;3.97;;
17520;SDS011;8878;-33.370;-70.552;2023-07-16T02:18:41;6.07;;;3.73;;
17520;SDS011;8878;-33.370;-70.552;2023-07-16T02:21:11;4.77;;;3.80;;
17520;SDS011;8878;-33.370;-70.552;2023-07-16T02:23:41;10.97;;;4.23;;
17520;SDS011;8878;-33.370;-70.552;2023-07-16T02:26:11;13.70;;;5.50;;
17520;SDS011;8878;-33.370;-70.552;2023-07-16T02:28:40;5.07;;;3.27;;
17520;SDS011;8878;-33.370;-70.552;2023-07-16T02:31:10;6.50;;;4.47;;
17520;SDS011;8878;-33.370;-70.552;2023-07-16T02:33:42;9.60;;;3.67;;
17520;SDS011;8878;-33.370;-70.552;2023-07-16T02:36:15;8.77;;;3.90;;
17520;SDS011;8878;-33.370;-70.552;2023-07-16T02:38:44;6.57;;;4.10;;
17520;SDS011;8878;-33.370;-70.552;2023-07-16T02:41:14;4.50;;;3.00;;
17520;SDS011;8878;-33.370;-70.552;2023-07-16T02:43:45;5.50;;;4.10;;
17520;SDS011;8878;-33.370;-70.552;2023-07-16T02:46:16;8.90;;;3.30;;
17520;SDS011;8878;-33.370;-70.552;2023-07-16T02:48:46;8.83;;;4.07;;
17520;SDS011;8878;-33.370;-70.552;2023-07-16T02:51:15;4.47;;;3.33;;
17520;SDS011;8878;-33.370;-70.552;2023-07-16T02:53:45;4.70;;;3.50;;
17520;SDS011;8878;-33.370;-70.552;2023-07-16T02:56:14;3.67;;;2.67;;
17520;SDS011;8878;-33.370;-70.552;2023-07-16T02:58:44;3.63;;;2.43;;
17520;SDS011;8878;-33.370;-70.552;2023-07-16T03:01:13;3.63;;;3.33;;
17520;SDS011;8878;-33.370;-70.552;2023-07-16T03:03:44;6.33;;;3.37;;
17520;SDS011;8878;-33.370;-70.552;2023-07-16T03:06:14;3.93;;;2.13;;
17520;SDS011;8878;-33.370;-70.552;2023-07-16T03:08:43;4.53;;;3.27;;
17520;SDS011;8878;-33.370;-70.552;2023-07-16T03:11:13;4.63;;;3.00;;
17520;SDS011;8878;-33.370;-70.552;2023-07-16T03:13:42;3.70;;;2.50;;
17520;SDS011;8878;-33.370;-70.552;2023-07-16T03:16:11;4.43;;;3.67;;
17520;SDS011;8878;-33.370;-70.552;2023-07-16T03:18:43;3.63;;;2.23;;
17520;SDS011;8878;-33.370;-70.552;2023-07-16T03:21:14;8.37;;;2.70;;
17520;SDS011;8878;-33.370;-70.552;2023-07-16T03:23:43;4.13;;;2.63;;
17520;SDS011;8878;-33.370;-70.552;2023-07-16T03:26:13;8.50;;;2.93;;
17520;SDS011;8878;-33.370;-70.552;2023-07-16T03:28:42;4.47;;;2.87;;
17520;SDS011;8878;-33.370;-70.552;2023-07-16T03:31:12;4.07;;;2.43;;
17520;SDS011;8878;-33.370;-70.552;2023-07-16T03:33:43;5.10;;;2.97;;
17520;SDS011;8878;-33.370;-70.552;2023-07-16T03:36:13;9.57;;;2.73;;
17520;SDS011;8878;-33.370;-70.552;2023-07-16T03:38:42;3.33;;;2.30;;
17520;SDS011;8878;-33.370;-70.552;2023-07-16T03:41:12;2.77;;;2.47;;
17520;SDS011;8878;-33.370;-70.552;2023-07-16T03:43:41;2.93;;;1.67;;
17520;SDS011;8878;-33.370;-70.552;2023-07-16T03:46:10;3.93;;;2.27;;
17520;SDS011;8878;-33.370;-70.552;2023-07-16T03:48:40;2.17;;;1.97;;
17520;SDS011;8878;-33.370;-70.552;2023-07-16T03:51:11;2.10;;;1.33;;
17520;SDS011;8878;-33.370;-70.552;2023-07-16T03:53:41;5.03;;;2.40;;
17520;SDS011;8878;-33.370;-70.552;2023-07-16T03:56:10;4.60;;;2.40;;
17520;SDS011;8878;-33.370;-70.552;2023-07-16T03:58:40;3.20;;;2.40;;
17520;SDS011;8878;-33.370;-70.552;2023-07-16T04:01:09;3.03;;;1.73;;
17520;SDS011;8878;-33.370;-70.552;2023-07-16T04:03:39;5.13;;;2.60;;
17520;SDS011;8878;-33.370;-70.552;2023-07-16T04:06:08;2.17;;;1.70;;
17520;SDS011;8878;-33.370;-70.552;2023-07-16T04:08:40;4.23;;;2.00;;
17520;SDS011;8878;-33.370;-70.552;2023-07-16T04:11:09;7.80;;;3.27;;
17520;SDS011;8878;-33.370;-70.552;2023-07-16T04:13:39;2.47;;;1.63;;
17520;SDS011;8878;-33.370;-70.552;2023-07-16T04:16:08;1.53;;;1.50;;
17520;SDS011;8878;-33.370;-70.552;2023-07-16T04:18:37;3.37;;;2.07;;
17520;SDS011;8878;-33.370;-70.552;2023-07-16T04:21:07;1.97;;;1.60;;
17520;SDS011;8878;-33.370;-70.552;2023-07-16T04:23:38;2.77;;;1.80;;
17520;SDS011;8878;-33.370;-70.552;2023-07-16T04:26:08;5.67;;;2.20;;
17520;SDS011;8878;-33.370;-70.552;2023-07-16T04:28:37;3.20;;;2.47;;
17520;SDS011;8878;-33.370;-70.552;2023-07-16T04:31:07;2.20;;;2.10;;
17520;SDS011;8878;-33.370;-70.552;2023-07-16T04:33:36;2.40;;;2.17;;
17520;SDS011;8878;-33.370;-70.552;2023-07-16T04:36:06;7.77;;;3.37;;
17520;SDS011;8878;-33.370;-70.552;2023-07-16T04:38:36;12.20;;;3.07;;
17520;SDS011;8878;-33.370;-70.552;2023-07-16T04:41:07;6.00;;;2.80;;
17520;SDS011;8878;-33.370;-70.552;2023-07-16T04:43:38;6.00;;;3.43;;
17520;SDS011;8878;-33.370;-70.552;2023-07-16T04:46:08;9.50;;;4.03;;
17520;SDS011;8878;-33.370;-70.552;2023-07-16T04:48:37;8.90;;;4.70;;
17520;SDS011;8878;-33.370;-70.552;2023-07-16T04:51:07;14.23;;;6.23;;
17520;SDS011;8878;-33.370;-70.552;2023-07-16T04:53:38;11.80;;;4.93;;
17520;SDS011;8878;-33.370;-70.552;2023-07-16T04:56:11;7.87;;;3.63;;
17520;SDS011;8878;-33.370;-70.552;2023-07-16T04:58:40;13.30;;;5.70;;
17520;SDS011;8878;-33.370;-70.552;2023-07-16T05:01:10;10.10;;;5.57;;
17520;SDS011;8878;-33.370;-70.552;2023-07-16T05:03:40;11.63;;;6.87;;
17520;SDS011;8878;-33.370;-70.552;2023-07-16T05:06:09;7.70;;;5.80;;
17520;SDS011;8878;-33.370;-70.552;2023-07-16T05:08:40;7.63;;;4.50;;
17520;SDS011;8878;-33.370;-70.552;2023-07-16T05:11:10;10.10;;;5.80;;
17520;SDS011;8878;-33.370;-70.552;2023-07-16T05:13:40;8.93;;;5.20;;
17520;SDS011;8878;-33.370;-70.552;2023-07-16T05:16:09;18.40;;;8.27;;
17520;SDS011;8878;-33.370;-70.552;2023-07-16T05:18:39;11.83;;;5.97;;
17520;SDS011;8878;-33.370;-70.552;2023-07-16T05:21:08;18.43;;;6.17;;
17520;SDS011;8878;-33.370;-70.552;2023-07-16T05:23:37;8.97;;;5.70;;
17520;SDS011;8878;-33.370;-70.552;2023-07-16T05:26:10;27.60;;;7.87;;
17520;SDS011;8878;-33.370;-70.552;2023-07-16T05:28:39;13.97;;;6.87;;
17520;SDS011;8878;-33.370;-70.552;2023-07-16T05:31:09;12.17;;;7.73;;
17520;SDS011;8878;-33.370;-70.552;2023-07-16T05:33:38;9.57;;;6.90;;
17520;SDS011;8878;-33.370;-70.552;2023-07-16T05:36:08;12.57;;;4.97;;
17520;SDS011;8878;-33.370;-70.552;2023-07-16T05:38:38;10.43;;;5.27;;
17520;SDS011;8878;-33.370;-70.552;2023-07-16T05:41:09;11.40;;;5.13;;
17520;SDS011;8878;-33.370;-70.552;2023-07-16T05:43:38;5.73;;;2.93;;
17520;SDS011;8878;-33.370;-70.552;2023-07-16T05:46:08;8.27;;;3.13;;
17520;SDS011;8878;-33.370;-70.552;2023-07-16T05:48:37;9.40;;;3.43;;
17520;SDS011;8878;-33.370;-70.552;2023-07-16T05:51:06;3.83;;;2.47;;
17520;SDS011;8878;-33.370;-70.552;2023-07-16T05:53:36;9.67;;;2.67;;
17520;SDS011;8878;-33.370;-70.552;2023-07-16T05:56:07;6.33;;;3.10;;
17520;SDS011;8878;-33.370;-70.552;2023-07-16T05:58:36;4.80;;;2.80;;
17520;SDS011;8878;-33.370;-70.552;2023-07-16T06:01:06;6.60;;;3.07;;
17520;SDS011;8878;-33.370;-70.552;2023-07-16T06:03:36;5.50;;;3.37;;
17520;SDS011;8878;-33.370;-70.552;2023-07-16T06:06:05;6.87;;;2.73;;
17520;SDS011;8878;-33.370;-70.552;2023-07-16T06:08:38;4.67;;;2.97;;
17520;SDS011;8878;-33.370;-70.552;2023-07-16T06:11:09;3.33;;;3.03;;
17520;SDS011;8878;-33.370;-70.552;2023-07-16T06:13:39;3.67;;;2.60;;
17520;SDS011;8878;-33.370;-70.552;2023-07-16T06:16:08;2.43;;;2.23;;
17520;SDS011;8878;-33.370;-70.552;2023-07-16T06:18:38;6.43;;;3.83;;
17520;SDS011;8878;-33.370;-70.552;2023-07-16T06:21:07;6.17;;;3.60;;
17520;SDS011;8878;-33.370;-70.552;2023-07-16T06:23:37;5.40;;;3.30;;
17520;SDS011;8878;-33.370;-70.552;2023-07-16T06:26:07;7.93;;;3.73;;
17520;SDS011;8878;-33.370;-70.552;2023-07-16T06:28:39;8.40;;;5.03;;
17520;SDS011;8878;-33.370;-70.552;2023-07-16T06:31:09;6.10;;;3.80;;
17520;SDS011;8878;-33.370;-70.552;2023-07-16T06:33:38;9.47;;;4.43;;
17520;SDS011;8878;-33.370;-70.552;2023-07-16T06:36:08;12.13;;;3.87;;
17520;SDS011;8878;-33.370;-70.552;2023-07-16T06:38:37;6.63;;;3.87;;
17520;SDS011;8878;-33.370;-70.552;2023-07-16T06:41:09;7.67;;;4.43;;
17520;SDS011;8878;-33.370;-70.552;2023-07-16T06:43:41;8.80;;;3.60;;
17520;SDS011;8878;-33.370;-70.552;2023-07-16T06:46:19;9.33;;;5.60;;
17520;SDS011;8878;-33.370;-70.552;2023-07-16T06:48:49;3.50;;;3.07;;
17520;SDS011;8878;-33.370;-70.552;2023-07-16T06:51:18;7.20;;;5.30;;
17520;SDS011;8878;-33.370;-70.552;2023-07-16T06:53:47;6.43;;;5.43;;
17520;SDS011;8878;-33.370;-70.552;2023-07-16T06:56:19;11.93;;;5.37;;
17520;SDS011;8878;-33.370;-70.552;2023-07-16T06:58:48;13.30;;;6.00;;
17520;SDS011;8878;-33.370;-70.552;2023-07-16T07:01:18;8.80;;;4.60;;
17520;SDS011;8878;-33.370;-70.552;2023-07-16T07:03:47;10.90;;;5.43;;
17520;SDS011;8878;-33.370;-70.552;2023-07-16T07:06:17;10.70;;;5.07;;
17520;SDS011;8878;-33.370;-70.552;2023-07-16T07:08:47;10.40;;;5.03;;
17520;SDS011;8878;-33.370;-70.552;2023-07-16T07:11:16;7.77;;;3.20;;
17520;SDS011;8878;-33.370;-70.552;2023-07-16T07:13:47;9.77;;;3.93;;
17520;SDS011;8878;-33.370;-70.552;2023-07-16T07:16:16;12.97;;;4.17;;
17520;SDS011;8878;-33.370;-70.552;2023-07-16T07:18:47;7.07;;;2.90;;
17520;SDS011;8878;-33.370;-70.552;2023-07-16T07:21:16;6.80;;;3.97;;
17520;SDS011;8878;-33.370;-70.552;2023-07-16T07:23:45;3.27;;;2.60;;
17520;SDS011;8878;-33.370;-70.552;2023-07-16T07:26:15;4.10;;;3.40;;
17520;SDS011;8878;-33.370;-70.552;2023-07-16T07:28:47;3.70;;;2.57;;
17520;SDS011;8878;-33.370;-70.552;2023-07-16T07:31:17;2.87;;;2.37;;
17520;SDS011;8878;-33.370;-70.552;2023-07-16T07:33:46;6.20;;;2.37;;
17520;SDS011;8878;-33.370;-70.552;2023-07-16T07:36:16;3.70;;;2.37;;
17520;SDS011;8878;-33.370;-70.552;2023-07-16T07:38:45;5.00;;;3.00;;
17520;SDS011;8878;-33.370;-70.552;2023-07-16T07:41:15;15.17;;;2.73;;
17520;SDS011;8878;-33.370;-70.552;2023-07-16T07:43:46;3.10;;;1.93;;
17520;SDS011;8878;-33.370;-70.552;2023-07-16T07:46:16;4.70;;;2.33;;
17520;SDS011;8878;-33.370;-70.552;2023-07-16T07:48:45;2.50;;;1.53;;
17520;SDS011;8878;-33.370;-70.552;2023-07-16T07:51:15;2.77;;;1.60;;
17520;SDS011;8878;-33.370;-70.552;2023-07-16T07:53:44;4.30;;;1.50;;
17520;SDS011;8878;-33.370;-70.552;2023-07-16T07:56:14;3.23;;;2.40;;
17520;SDS011;8878;-33.370;-70.552;2023-07-16T07:58:45;4.77;;;1.57;;
17520;SDS011;8878;-33.370;-70.552;2023-07-16T08:01:14;1.43;;;1.27;;
17520;SDS011;8878;-33.370;-70.552;2023-07-16T08:03:44;3.03;;;1.37;;
17520;SDS011;8878;-33.370;-70.552;2023-07-16T08:06:13;1.27;;;1.20;;
17520;SDS011;8878;-33.370;-70.552;2023-07-16T08:08:44;2.57;;;1.47;;
17520;SDS011;8878;-33.370;-70.552;2023-07-16T08:11:13;1.70;;;1.23;;
17520;SDS011;8878;-33.370;-70.552;2023-07-16T08:13:43;2.07;;;0.80;;
17520;SDS011;8878;-33.370;-70.552;2023-07-16T08:16:15;4.47;;;1.83;;
17520;SDS011;8878;-33.370;-70.552;2023-07-16T08:18:44;0.70;;;0.70;;
17520;SDS011;8878;-33.370;-70.552;2023-07-16T08:21:14;0.90;;;0.90;;
17520;SDS011;8878;-33.370;-70.552;2023-07-16T08:23:47;1.50;;;1.40;;
17520;SDS011;8878;-33.370;-70.552;2023-07-16T08:26:16;4.83;;;1.13;;
17520;SDS011;8878;-33.370;-70.552;2023-07-16T08:28:48;2.53;;;2.33;;
17520;SDS011;8878;-33.370;-70.552;2023-07-16T08:31:17;2.90;;;1.77;;
17520;SDS011;8878;-33.370;-70.552;2023-07-16T08:33:47;1.77;;;1.53;;
17520;SDS011;8878;-33.370;-70.552;2023-07-16T08:36:16;3.60;;;1.23;;
17520;SDS011;8878;-33.370;-70.552;2023-07-16T08:38:46;1.27;;;1.17;;
17520;SDS011;8878;-33.370;-70.552;2023-07-16T08:41:16;1.33;;;1.23;;
17520;SDS011;8878;-33.370;-70.552;2023-07-16T08:43:47;2.73;;;2.03;;
17520;SDS011;8878;-33.370;-70.552;2023-07-16T08:46:17;5.13;;;2.60;;
17520;SDS011;8878;-33.370;-70.552;2023-07-16T08:48:46;4.13;;;1.80;;
17520;SDS011;8878;-33.370;-70.552;2023-07-16T08:51:17;3.23;;;1.83;;
17520;SDS011;8878;-33.370;-70.552;2023-07-16T08:53:49;3.80;;;1.83;;
17520;SDS011;8878;-33.370;-70.552;2023-07-16T08:56:18;1.53;;;1.33;;
17520;SDS011;8878;-33.370;-70.552;2023-07-16T08:58:49;2.10;;;1.30;;
17520;SDS011;8878;-33.370;-70.552;2023-07-16T09:01:22;1.73;;;1.53;;
17520;SDS011;8878;-33.370;-70.552;2023-07-16T09:03:52;4.03;;;1.20;;
17520;SDS011;8878;-33.370;-70.552;2023-07-16T09:06:22;9.73;;;1.70;;
17520;SDS011;8878;-33.370;-70.552;2023-07-16T09:08:51;1.13;;;1.03;;
17520;SDS011;8878;-33.370;-70.552;2023-07-16T09:11:21;1.67;;;1.17;;
17520;SDS011;8878;-33.370;-70.552;2023-07-16T09:13:52;1.47;;;1.10;;
17520;SDS011;8878;-33.370;-70.552;2023-07-16T09:16:21;1.13;;;1.07;;
17520;SDS011;8878;-33.370;-70.552;2023-07-16T09:18:51;0.70;;;0.70;;
17520;SDS011;8878;-33.370;-70.552;2023-07-16T09:21:21;3.53;;;1.37;;
17520;SDS011;8878;-33.370;-70.552;2023-07-16T09:23:50;1.27;;;1.10;;
17520;SDS011;8878;-33.370;-70.552;2023-07-16T09:26:20;1.30;;;1.30;;
17520;SDS011;8878;-33.370;-70.552;2023-07-16T09:28:52;1.33;;;1.23;;
17520;SDS011;8878;-33.370;-70.552;2023-07-16T09:31:22;1.40;;;1.30;;
17520;SDS011;8878;-33.370;-70.552;2023-07-16T09:33:51;0.87;;;0.63;;
17520;SDS011;8878;-33.370;-70.552;2023-07-16T09:36:24;2.23;;;1.67;;
17520;SDS011;8878;-33.370;-70.552;2023-07-16T09:38:54;1.63;;;1.27;;
17520;SDS011;8878;-33.370;-70.552;2023-07-16T09:41:25;3.50;;;1.50;;
17520;SDS011;8878;-33.370;-70.552;2023-07-16T09:43:57;2.13;;;1.30;;
17520;SDS011;8878;-33.370;-70.552;2023-07-16T09:46:26;1.30;;;1.30;;
17520;SDS011;8878;-33.370;-70.552;2023-07-16T09:48:56;1.03;;;0.97;;
17520;SDS011;8878;-33.370;-70.552;2023-07-16T09:51:25;1.57;;;1.47;;
17520;SDS011;8878;-33.370;-70.552;2023-07-16T09:53:57;3.23;;;0.83;;
17520;SDS011;8878;-33.370;-70.552;2023-07-16T09:56:30;2.40;;;0.97;;
17520;SDS011;8878;-33.370;-70.552;2023-07-16T09:59:07;1.80;;;1.27;;
17520;SDS011;8878;-33.370;-70.552;2023-07-16T10:01:39;1.13;;;1.07;;
17520;SDS011;8878;-33.370;-70.552;2023-07-16T10:04:13;1.63;;;1.27;;
17520;SDS011;8878;-33.370;-70.552;2023-07-16T10:06:50;2.20;;;1.03;;
17520;SDS011;8878;-33.370;-70.552;2023-07-16T10:09:36;1.73;;;1.00;;
17520;SDS011;8878;-33.370;-70.552;2023-07-16T10:12:10;1.10;;;0.83;;
17520;SDS011;8878;-33.370;-70.552;2023-07-16T10:14:43;2.60;;;1.10;;
17520;SDS011;8878;-33.370;-70.552;2023-07-16T10:17:14;1.90;;;0.87;;
17520;SDS011;8878;-33.370;-70.552;2023-07-16T10:19:47;1.23;;;1.17;;
17520;SDS011;8878;-33.370;-70.552;2023-07-16T10:22:18;0.47;;;0.47;;
17520;SDS011;8878;-33.370;-70.552;2023-07-16T10:24:53;2.20;;;1.10;;
17520;SDS011;8878;-33.370;-70.552;2023-07-16T10:27:29;1.30;;;0.67;;
17520;SDS011;8878;-33.370;-70.552;2023-07-16T10:30:01;1.17;;;1.00;;
17520;SDS011;8878;-33.370;-70.552;2023-07-16T10:32:33;0.87;;;0.80;;
17520;SDS011;8878;-33.370;-70.552;2023-07-16T10:35:03;1.23;;;0.87;;
17520;SDS011;8878;-33.370;-70.552;2023-07-16T10:37:34;0.77;;;0.77;;
17520;SDS011;8878;-33.370;-70.552;2023-07-16T10:40:05;5.20;;;1.30;;
17520;SDS011;8878;-33.370;-70.552;2023-07-16T10:42:39;0.80;;;0.80;;
17520;SDS011;8878;-33.370;-70.552;2023-07-16T10:45:14;0.63;;;0.63;;
17520;SDS011;8878;-33.370;-70.552;2023-07-16T10:47:50;0.77;;;0.77;;
17520;SDS011;8878;-33.370;-70.552;2023-07-16T10:50:21;1.17;;;1.07;;
17520;SDS011;8878;-33.370;-70.552;2023-07-16T10:52:51;1.13;;;1.00;;
17520;SDS011;8878;-33.370;-70.552;2023-07-16T10:55:21;0.90;;;0.90;;
17520;SDS011;8878;-33.370;-70.552;2023-07-16T10:57:51;0.87;;;0.83;;
17520;SDS011;8878;-33.370;-70.552;2023-07-16T11:00:23;2.27;;;1.00;;
17520;SDS011;8878;-33.370;-70.552;2023-07-16T11:02:52;0.53;;;0.53;;
17520;SDS011;8878;-33.370;-70.552;2023-07-16T11:05:22;1.80;;;0.97;;
17520;SDS011;8878;-33.370;-70.552;2023-07-16T11:07:51;0.77;;;0.70;;
17520;SDS011;8878;-33.370;-70.552;2023-07-16T11:10:21;3.23;;;1.03;;
17520;SDS011;8878;-33.370;-70.552;2023-07-16T11:12:52;1.67;;;1.27;;
17520;SDS011;8878;-33.370;-70.552;2023-07-16T11:15:31;1.47;;;1.37;;
17520;SDS011;8878;-33.370;-70.552;2023-07-16T11:18:02;3.23;;;0.73;;
17520;SDS011;8878;-33.370;-70.552;2023-07-16T11:20:32;0.83;;;0.80;;
17520;SDS011;8878;-33.370;-70.552;2023-07-16T11:23:02;0.77;;;0.77;;
17520;SDS011;8878;-33.370;-70.552;2023-07-16T11:25:32;2.00;;;1.10;;
17520;SDS011;8878;-33.370;-70.552;2023-07-16T11:28:03;2.23;;;1.23;;
17520;SDS011;8878;-33.370;-70.552;2023-07-16T11:30:34;1.30;;;1.20;;
17520;SDS011;8878;-33.370;-70.552;2023-07-16T11:33:03;2.27;;;1.57;;
17520;SDS011;8878;-33.370;-70.552;2023-07-16T11:35:38;2.67;;;1.63;;
17520;SDS011;8878;-33.370;-70.552;2023-07-16T11:38:08;0.43;;;0.43;;
17520;SDS011;8878;-33.370;-70.552;2023-07-16T11:40:38;0.67;;;0.53;;
17520;SDS011;8878;-33.370;-70.552;2023-07-16T11:43:08;0.80;;;0.80;;
17520;SDS011;8878;-33.370;-70.552;2023-07-16T11:45:46;2.33;;;0.87;;
17520;SDS011;8878;-33.370;-70.552;2023-07-16T11:48:16;1.63;;;1.20;;
17520;SDS011;8878;-33.370;-70.552;2023-07-16T11:50:47;1.27;;;0.63;;
17520;SDS011;8878;-33.370;-70.552;2023-07-16T11:53:16;2.40;;;1.10;;
17520;SDS011;8878;-33.370;-70.552;2023-07-16T11:55:46;1.27;;;0.90;;
17520;SDS011;8878;-33.370;-70.552;2023-07-16T11:58:15;1.97;;;0.80;;
17520;SDS011;8878;-33.370;-70.552;2023-07-16T12:00:46;0.90;;;0.83;;
17520;SDS011;8878;-33.370;-70.552;2023-07-16T12:03:17;1.83;;;1.00;;
17520;SDS011;8878;-33.370;-70.552;2023-07-16T12:05:46;0.90;;;0.80;;
17520;SDS011;8878;-33.370;-70.552;2023-07-16T12:08:15;1.50;;;1.03;;
17520;SDS011;8878;-33.370;-70.552;2023-07-16T12:10:45;2.17;;;0.93;;
17520;SDS011;8878;-33.370;-70.552;2023-07-16T12:13:14;0.87;;;0.57;;
17520;SDS011;8878;-33.370;-70.552;2023-07-16T12:15:44;1.13;;;1.00;;
17520;SDS011;8878;-33.370;-70.552;2023-07-16T12:18:15;1.10;;;1.00;;
17520;SDS011;8878;-33.370;-70.552;2023-07-16T12:20:44;1.17;;;1.07;;
17520;SDS011;8878;-33.370;-70.552;2023-07-16T12:23:14;1.77;;;1.03;;
17520;SDS011;8878;-33.370;-70.552;2023-07-16T12:25:43;1.10;;;0.90;;
17520;SDS011;8878;-33.370;-70.552;2023-07-16T12:28:13;1.77;;;1.03;;
17520;SDS011;8878;-33.370;-70.552;2023-07-16T12:30:42;1.37;;;0.47;;
17520;SDS011;8878;-33.370;-70.552;2023-07-16T12:33:13;3.20;;;0.90;;
17520;SDS011;8878;-33.370;-70.552;2023-07-16T12:35:43;1.83;;;1.23;;
17520;SDS011;8878;-33.370;-70.552;2023-07-16T12:38:13;1.47;;;0.73;;
17520;SDS011;8878;-33.370;-70.552;2023-07-16T12:40:42;1.33;;;0.93;;
17520;SDS011;8878;-33.370;-70.552;2023-07-16T12:43:12;2.57;;;0.80;;
17520;SDS011;8878;-33.370;-70.552;2023-07-16T12:45:41;4.10;;;1.43;;
17520;SDS011;8878;-33.370;-70.552;2023-07-16T12:48:11;1.60;;;0.83;;
17520;SDS011;8878;-33.370;-70.552;2023-07-16T12:50:42;4.07;;;1.00;;
17520;SDS011;8878;-33.370;-70.552;2023-07-16T12:53:11;0.90;;;0.90;;
17520;SDS011;8878;-33.370;-70.552;2023-07-16T12:55:41;3.13;;;0.90;;
17520;SDS011;8878;-33.370;-70.552;2023-07-16T12:58:10;1.90;;;1.50;;
17520;SDS011;8878;-33.370;-70.552;2023-07-16T13:00:40;1.20;;;1.10;;
17520;SDS011;8878;-33.370;-70.552;2023-07-16T13:03:10;1.70;;;1.60;;
17520;SDS011;8878;-33.370;-70.552;2023-07-16T13:05:44;2.17;;;1.23;;
17520;SDS011;8878;-33.370;-70.552;2023-07-16T13:08:13;3.80;;;1.07;;
17520;SDS011;8878;-33.370;-70.552;2023-07-16T13:10:42;2.13;;;1.37;;
17520;SDS011;8878;-33.370;-70.552;2023-07-16T13:13:12;3.37;;;1.83;;
17520;SDS011;8878;-33.370;-70.552;2023-07-16T13:15:42;2.37;;;1.50;;
17520;SDS011;8878;-33.370;-70.552;2023-07-16T13:18:12;2.23;;;1.17;;
17520;SDS011;8878;-33.370;-70.552;2023-07-16T13:20:45;1.43;;;1.33;;
17520;SDS011;8878;-33.370;-70.552;2023-07-16T13:23:15;2.00;;;1.10;;
17520;SDS011;8878;-33.370;-70.552;2023-07-16T13:25:45;3.03;;;1.47;;
17520;SDS011;8878;-33.370;-70.552;2023-07-16T13:28:17;3.33;;;1.53;;
17520;SDS011;8878;-33.370;-70.552;2023-07-16T13:30:47;3.40;;;0.70;;
17520;SDS011;8878;-33.370;-70.552;2023-07-16T13:33:16;3.03;;;0.93;;
17520;SDS011;8878;-33.370;-70.552;2023-07-16T13:35:48;1.17;;;0.73;;
17520;SDS011;8878;-33.370;-70.552;2023-07-16T13:38:18;1.23;;;1.10;;
17520;SDS011;8878;-33.370;-70.552;2023-07-16T13:40:47;2.97;;;0.73;;
17520;SDS011;8878;-33.370;-70.552;2023-07-16T13:43:16;2.23;;;1.10;;
17520;SDS011;8878;-33.370;-70.552;2023-07-16T13:45:46;1.63;;;0.70;;
17520;SDS011;8878;-33.370;-70.552;2023-07-16T13:48:15;0.73;;;0.70;;
17520;SDS011;8878;-33.370;-70.552;2023-07-16T13:50:45;0.90;;;0.90;;
17520;SDS011;8878;-33.370;-70.552;2023-07-16T13:53:17;0.97;;;0.90;;
17520;SDS011;8878;-33.370;-70.552;2023-07-16T13:55:46;3.70;;;1.57;;
17520;SDS011;8878;-33.370;-70.552;2023-07-16T13:58:16;3.13;;;1.53;;
17520;SDS011;8878;-33.370;-70.552;2023-07-16T14:00:46;3.70;;;2.13;;
17520;SDS011;8878;-33.370;-70.552;2023-07-16T14:03:15;8.87;;;4.47;;
17520;SDS011;8878;-33.370;-70.552;2023-07-16T14:05:45;9.13;;;3.53;;
17520;SDS011;8878;-33.370;-70.552;2023-07-16T14:08:16;10.90;;;3.03;;
17520;SDS011;8878;-33.370;-70.552;2023-07-16T14:10:45;15.90;;;4.63;;
17520;SDS011;8878;-33.370;-70.552;2023-07-16T14:13:15;14.73;;;5.03;;
17520;SDS011;8878;-33.370;-70.552;2023-07-16T14:15:44;11.67;;;5.00;;
17520;SDS011;8878;-33.370;-70.552;2023-07-16T14:18:14;8.33;;;4.37;;
17520;SDS011;8878;-33.370;-70.552;2023-07-16T14:20:43;10.20;;;4.23;;
17520;SDS011;8878;-33.370;-70.552;2023-07-16T14:23:12;11.93;;;4.23;;
17520;SDS011;8878;-33.370;-70.552;2023-07-16T14:25:44;9.67;;;3.77;;
17520;SDS011;8878;-33.370;-70.552;2023-07-16T14:28:13;7.97;;;3.00;;
17520;SDS011;8878;-33.370;-70.552;2023-07-16T14:30:43;5.33;;;2.37;;
17520;SDS011;8878;-33.370;-70.552;2023-07-16T14:33:12;8.93;;;4.00;;
17520;SDS011;8878;-33.370;-70.552;2023-07-16T14:35:42;10.83;;;4.83;;
17520;SDS011;8878;-33.370;-70.552;2023-07-16T14:38:11;7.90;;;3.70;;
17520;SDS011;8878;-33.370;-70.552;2023-07-16T14:40:40;15.17;;;5.67;;